sensor_id;sensor_type;location;lat;lon;timestamp;pressure;altitude;pressure_sealevel;temperature;humidity
71666;BME280;59503;53.486;10.196;2024-02-15T00:01:39;101557.31;;;10.34;100.00
71666;BME280;59503;53.486;10.196;2024-02-15T00:04:04;101547.59;;;10.33;100.00
71666;BME280;59503;53.486;10.196;2024-02-15T00:06:31;101556.19;;;10.35;100.00
71666;BME280;59503;53.486;10.196;2024-02-15T00:08:56;101564.34;;;10.35;100.00
71666;BME280;59503;53.486;10.196;2024-02-15T00:11:21;101559.69;;;10.36;100.00
71666;BME280;59503;53.486;10.196;2024-02-15T00:13:47;101560.16;;;10.38;100.00
71666;BME280;59503;53.486;10.196;2024-02-15T00:16:14;101563.69;;;10.38;100.00
71666;BME280;59503;53.486;10.196;2024-02-15T00:18:40;101569.53;;;10.40;100.00
71666;BME280;59503;53.486;10.196;2024-02-15T00:21:05;101566.06;;;10.40;100.00
71666;BME280;59503;53.486;10.196;2024-02-15T00:23:31;101572.25;;;10.40;100.00
71666;BME280;59503;53.486;10.196;2024-02-15T00:25:58;101575.44;;;10.42;100.00
71666;BME280;59503;53.486;10.196;2024-02-15T00:28:23;101566.81;;;10.40;100.00
71666;BME280;59503;53.486;10.196;2024-02-15T00:30:49;101567.97;;;10.39;100.00
71666;BME280;59503;53.486;10.196;2024-02-15T00:33:15;101566.81;;;10.40;100.00
71666;BME280;59503;53.486;10.196;2024-02-15T00:35:41;101566.06;;;10.40;100.00
71666;BME280;59503;53.486;10.196;2024-02-15T00:38:07;101564.91;;;10.41;100.00
71666;BME280;59503;53.486;10.196;2024-02-15T00:40:32;101562.75;;;10.46;100.00
71666;BME280;59503;53.486;10.196;2024-02-15T00:42:58;101557.66;;;10.45;100.00
71666;BME280;59503;53.486;10.196;2024-02-15T00:45:24;101567.06;;;10.47;100.00
71666;BME280;59503;53.486;10.196;2024-02-15T00:47:50;101557.09;;;10.51;100.00
71666;BME280;59503;53.486;10.196;2024-02-15T00:50:15;101556.88;;;10.44;100.00
71666;BME280;59503;53.486;10.196;2024-02-15T00:52:41;101562.06;;;10.49;100.00
71666;BME280;59503;53.486;10.196;2024-02-15T00:55:07;101570.22;;;10.49;100.00
71666;BME280;59503;53.486;10.196;2024-02-15T00:57:32;101568.75;;;10.52;100.00
71666;BME280;59503;53.486;10.196;2024-02-15T00:59:57;101567.16;;;10.51;100.00
71666;BME280;59503;53.486;10.196;2024-02-15T01:02:23;101567.28;;;10.54;100.00
71666;BME280;59503;53.486;10.196;2024-02-15T01:04:49;101574.28;;;10.55;100.00
71666;BME280;59503;53.486;10.196;2024-02-15T01:07:15;101568.44;;;10.53;100.00
71666;BME280;59503;53.486;10.196;2024-02-15T01:09:41;101573.88;;;10.53;100.00
71666;BME280;59503;53.486;10.196;2024-02-15T01:12:06;101578.28;;;10.58;100.00
71666;BME280;59503;53.486;10.196;2024-02-15T01:14:32;101569.53;;;10.52;100.00
71666;BME280;59503;53.486;10.196;2024-02-15T01:16:58;101574.28;;;10.55;100.00
71666;BME280;59503;53.486;10.196;2024-02-15T01:19:24;101577.81;;;10.56;100.00
71666;BME280;59503;53.486;10.196;2024-02-15T01:21:49;101573.94;;;10.57;100.00
71666;BME280;59503;53.486;10.196;2024-02-15T01:24:14;101570.47;;;10.56;100.00
71666;BME280;59503;53.486;10.196;2024-02-15T01:26:40;101572.38;;;10.56;100.00
71666;BME280;59503;53.486;10.196;2024-02-15T01:29:06;101562.66;;;10.55;100.00
71666;BME280;59503;53.486;10.196;2024-02-15T01:31:35;101569.66;;;10.56;100.00
71666;BME280;59503;53.486;10.196;2024-02-15T01:34:02;101576.34;;;10.58;100.00
71666;BME280;59503;53.486;10.196;2024-02-15T01:36:27;101572.84;;;10.58;100.00
71666;BME280;59503;53.486;10.196;2024-02-15T01:38:53;101563.00;;;10.53;100.00
71666;BME280;59503;53.486;10.196;2024-02-15T01:41:19;101557.97;;;10.55;100.00
71666;BME280;59503;53.486;10.196;2024-02-15T01:43:44;101560.69;;;10.55;100.00
71666;BME280;59503;53.486;10.196;2024-02-15T01:46:10;101564.22;;;10.56;100.00
71666;BME280;59503;53.486;10.196;2024-02-15T01:48:36;101570.13;;;10.58;100.00
71666;BME280;59503;53.486;10.196;2024-02-15T01:51:03;101570.13;;;10.58;100.00
71666;BME280;59503;53.486;10.196;2024-02-15T01:53:29;101567.63;;;10.53;100.00
71666;BME280;59503;53.486;10.196;2024-02-15T01:55:56;101568.19;;;10.58;100.00
71666;BME280;59503;53.486;10.196;2024-02-15T01:58:26;101568.84;;;10.55;100.00
71666;BME280;59503;53.486;10.196;2024-02-15T02:00:53;101557.56;;;10.53;100.00
71666;BME280;59503;53.486;10.196;2024-02-15T02:03:21;101569.78;;;10.59;100.00
71666;BME280;59503;53.486;10.196;2024-02-15T02:05:46;101569.53;;;10.52;100.00
71666;BME280;59503;53.486;10.196;2024-02-15T02:08:12;101562.75;;;10.58;100.00
71666;BME280;59503;53.486;10.196;2024-02-15T02:10:41;101575.44;;;10.66;100.00
71666;BME280;59503;53.486;10.196;2024-02-15T02:13:06;101564.56;;;10.66;100.00
71666;BME280;59503;53.486;10.196;2024-02-15T02:15:32;101562.84;;;10.62;100.00
71666;BME280;59503;53.486;10.196;2024-02-15T02:17:58;101567.97;;;10.63;100.00
71666;BME280;59503;53.486;10.196;2024-02-15T02:20:25;101568.41;;;10.65;100.00
71666;BME280;59503;53.486;10.196;2024-02-15T02:22:53;101565.25;;;10.63;100.00
71666;BME280;59503;53.486;10.196;2024-02-15T02:25:20;101558.66;;;10.64;100.00
71666;BME280;59503;53.486;10.196;2024-02-15T02:27:47;101556.63;;;10.61;100.00
71666;BME280;59503;53.486;10.196;2024-02-15T02:30:14;101561.72;;;10.63;100.00
71666;BME280;59503;53.486;10.196;2024-02-15T02:32:41;101566.38;;;10.62;100.00
71666;BME280;59503;53.486;10.196;2024-02-15T02:35:07;101552.78;;;10.62;100.00
71666;BME280;59503;53.486;10.196;2024-02-15T02:37:33;101554.44;;;10.67;100.00
71666;BME280;59503;53.486;10.196;2024-02-15T02:40:03;101562.06;;;10.61;100.00
71666;BME280;59503;53.486;10.196;2024-02-15T02:42:29;101562.53;;;10.63;100.00
71666;BME280;59503;53.486;10.196;2024-02-15T02:44:54;101559.13;;;10.66;100.00
71666;BME280;59503;53.486;10.196;2024-02-15T02:47:19;101573.84;;;10.65;100.00
71666;BME280;59503;53.486;10.196;2024-02-15T02:49:45;101577.81;;;10.68;100.00
71666;BME280;59503;53.486;10.196;2024-02-15T02:52:10;101566.81;;;10.64;100.00
71666;BME280;59503;53.486;10.196;2024-02-15T02:54:36;101554.38;;;10.63;100.00
71666;BME280;59503;53.486;10.196;2024-02-15T02:57:01;101559.88;;;10.67;100.00
71666;BME280;59503;53.486;10.196;2024-02-15T02:59:27;101562.28;;;10.68;100.00
71666;BME280;59503;53.486;10.196;2024-02-15T03:01:52;101553.00;;;10.69;100.00
71666;BME280;59503;53.486;10.196;2024-02-15T03:04:21;101553.34;;;10.68;100.00
71666;BME280;59503;53.486;10.196;2024-02-15T03:06:47;101552.19;;;10.69;100.00
71666;BME280;59503;53.486;10.196;2024-02-15T03:09:12;101549.81;;;10.67;100.00
71666;BME280;59503;53.486;10.196;2024-02-15T03:11:39;101555.38;;;10.71;100.00
71666;BME280;59503;53.486;10.196;2024-02-15T03:14:05;101558.09;;;10.71;100.00
71666;BME280;59503;53.486;10.196;2024-02-15T03:16:34;101564.56;;;10.66;100.00
71666;BME280;59503;53.486;10.196;2024-02-15T03:18:59;101562.28;;;10.68;100.00
71666;BME280;59503;53.486;10.196;2024-02-15T03:21:28;101559.22;;;10.70;100.00
71666;BME280;59503;53.486;10.196;2024-02-15T03:23:53;101560.47;;;10.72;100.00
71666;BME280;59503;53.486;10.196;2024-02-15T03:26:29;101563.88;;;10.69;100.00
71666;BME280;59503;53.486;10.196;2024-02-15T03:28:56;101570.75;;;10.67;100.00
71666;BME280;59503;53.486;10.196;2024-02-15T03:31:21;101560.69;;;10.67;100.00
71666;BME280;59503;53.486;10.196;2024-02-15T03:33:47;101569.31;;;10.69;100.00
71666;BME280;59503;53.486;10.196;2024-02-15T03:36:16;101577.47;;;10.69;100.00
71666;BME280;59503;53.486;10.196;2024-02-15T03:38:45;101573.94;;;10.69;100.00
71666;BME280;59503;53.486;10.196;2024-02-15T03:41:12;101575.78;;;10.65;100.00
71666;BME280;59503;53.486;10.196;2024-02-15T03:43:37;101573.19;;;10.68;100.00
71666;BME280;59503;53.486;10.196;2024-02-15T03:46:04;101575.78;;;10.65;100.00
71666;BME280;59503;53.486;10.196;2024-02-15T03:48:29;101577.91;;;10.71;100.00
71666;BME280;59503;53.486;10.196;2024-02-15T03:50:57;101579.38;;;10.69;100.00
71666;BME280;59503;53.486;10.196;2024-02-15T03:53:24;101575.66;;;10.73;100.00
71666;BME280;59503;53.486;10.196;2024-02-15T03:55:49;101589.25;;;10.73;100.00
71666;BME280;59503;53.486;10.196;2024-02-15T03:58:19;101589.69;;;10.75;100.00
71666;BME280;59503;53.486;10.196;2024-02-15T04:00:45;101590.47;;;10.76;100.00
71666;BME280;59503;53.486;10.196;2024-02-15T04:03:10;101586.19;;;10.75;100.00
71666;BME280;59503;53.486;10.196;2024-02-15T04:05:36;101598.75;;;10.79;100.00
71666;BME280;59503;53.486;10.196;2024-02-15T04:08:01;101593.19;;;10.76;100.00
71666;BME280;59503;53.486;10.196;2024-02-15T04:10:27;101591.41;;;10.80;100.00
71666;BME280;59503;53.486;10.196;2024-02-15T04:12:53;101574.28;;;10.79;100.00
71666;BME280;59503;53.486;10.196;2024-02-15T04:15:18;101579.03;;;10.82;100.00
71666;BME280;59503;53.486;10.196;2024-02-15T04:17:44;101584.47;;;10.82;100.00
71666;BME280;59503;53.486;10.196;2024-02-15T04:20:11;101581.06;;;10.85;100.00
71666;BME280;59503;53.486;10.196;2024-02-15T04:22:37;101588.56;;;10.88;100.00
71666;BME280;59503;53.486;10.196;2024-02-15T04:25:07;101589.66;;;10.87;100.00
71666;BME280;59503;53.486;10.196;2024-02-15T04:27:35;101591.84;;;10.82;100.00
71666;BME280;59503;53.486;10.196;2024-02-15T04:30:04;101582.88;;;10.81;100.00
71666;BME280;59503;53.486;10.196;2024-02-15T04:32:32;101585.25;;;10.83;100.00
71666;BME280;59503;53.486;10.196;2024-02-15T04:35:00;101596.94;;;10.83;100.00
71666;BME280;59503;53.486;10.196;2024-02-15T04:37:26;101608.59;;;10.84;100.00
71666;BME280;59503;53.486;10.196;2024-02-15T04:39:58;101603.50;;;10.82;100.00
71666;BME280;59503;53.486;10.196;2024-02-15T04:42:23;101608.16;;;10.82;100.00
71666;BME280;59503;53.486;10.196;2024-02-15T04:44:52;101608.47;;;10.80;100.00
71666;BME280;59503;53.486;10.196;2024-02-15T04:47:19;101609.63;;;10.79;100.00
71666;BME280;59503;53.486;10.196;2024-02-15T04:49:45;101613.94;;;10.80;100.00
71666;BME280;59503;53.486;10.196;2024-02-15T04:52:11;101612.34;;;10.79;100.00
71666;BME280;59503;53.486;10.196;2024-02-15T04:54:36;101615.53;;;10.81;100.00
71666;BME280;59503;53.486;10.196;2024-02-15T04:57:01;101620.16;;;10.81;100.00
71666;BME280;59503;53.486;10.196;2024-02-15T04:59:27;101625.59;;;10.81;100.00
71666;BME280;59503;53.486;10.196;2024-02-15T05:01:54;101616.75;;;10.84;100.00
71666;BME280;59503;53.486;10.196;2024-02-15T05:04:21;101623.47;;;10.86;100.00
71666;BME280;59503;53.486;10.196;2024-02-15T05:06:48;101620.38;;;10.88;100.00
71666;BME280;59503;53.486;10.196;2024-02-15T05:09:13;101622.75;;;10.89;100.00
71666;BME280;59503;53.486;10.196;2024-02-15T05:11:39;101624.25;;;10.87;100.00
71666;BME280;59503;53.486;10.196;2024-02-15T05:14:12;101631.72;;;10.90;100.00
71666;BME280;59503;53.486;10.196;2024-02-15T05:16:37;101629.59;;;10.83;100.00
71666;BME280;59503;53.486;10.196;2024-02-15T05:19:11;101630.69;;;10.82;100.00
71666;BME280;59503;53.486;10.196;2024-02-15T05:21:37;101625.25;;;10.82;100.00
71666;BME280;59503;53.486;10.196;2024-02-15T05:24:03;101624.91;;;10.84;100.00
71666;BME280;59503;53.486;10.196;2024-02-15T05:26:28;101625.25;;;10.82;100.00
71666;BME280;59503;53.486;10.196;2024-02-15T05:28:54;101624.91;;;10.84;100.00
71666;BME280;59503;53.486;10.196;2024-02-15T05:31:20;101624.50;;;10.82;100.00
71666;BME280;59503;53.486;10.196;2024-02-15T05:33:46;101619.59;;;10.87;100.00
71666;BME280;59503;53.486;10.196;2024-02-15T05:36:13;101624.25;;;10.87;100.00
71666;BME280;59503;53.486;10.196;2024-02-15T05:38:40;101613.25;;;10.83;100.00
71666;BME280;59503;53.486;10.196;2024-02-15T05:41:06;101614.03;;;10.84;100.00
71666;BME280;59503;53.486;10.196;2024-02-15T05:43:36;101611.78;;;10.86;100.00
71666;BME280;59503;53.486;10.196;2024-02-15T05:46:04;101611.88;;;10.89;100.00
71666;BME280;59503;53.486;10.196;2024-02-15T05:48:32;101614.16;;;10.87;100.00
71666;BME280;59503;53.486;10.196;2024-02-15T05:51:01;101601.34;;;10.88;100.00
71666;BME280;59503;53.486;10.196;2024-02-15T05:53:26;101609.50;;;10.88;100.00
71666;BME280;59503;53.486;10.196;2024-02-15T05:55:52;101606.44;;;10.89;100.00
71666;BME280;59503;53.486;10.196;2024-02-15T05:58:18;101605.06;;;10.95;100.00
71666;BME280;59503;53.486;10.196;2024-02-15T06:00:43;101603.50;;;10.94;100.00
71666;BME280;59503;53.486;10.196;2024-02-15T06:03:10;101610.06;;;10.93;100.00
71666;BME280;59503;53.486;10.196;2024-02-15T06:05:36;101617.78;;;10.91;100.00
71666;BME280;59503;53.486;10.196;2024-02-15T06:08:03;101621.31;;;10.92;100.00
71666;BME280;59503;53.486;10.196;2024-02-15T06:10:29;101628.31;;;10.93;100.00
71666;BME280;59503;53.486;10.196;2024-02-15T06:12:56;101623.00;;;10.96;100.00
71666;BME280;59503;53.486;10.196;2024-02-15T06:15:23;101617.09;;;10.94;100.00
71666;BME280;59503;53.486;10.196;2024-02-15T06:17:48;101622.06;;;10.92;100.00
71666;BME280;59503;53.486;10.196;2024-02-15T06:20:15;101633.06;;;10.96;100.00
71666;BME280;59503;53.486;10.196;2024-02-15T06:22:44;101639.31;;;10.96;100.00
71666;BME280;59503;53.486;10.196;2024-02-15T06:25:10;101636.13;;;10.94;100.00
71666;BME280;59503;53.486;10.196;2024-02-15T06:27:37;101633.75;;;10.93;100.00
71666;BME280;59503;53.486;10.196;2024-02-15T06:30:07;101626.50;;;10.97;100.00
71666;BME280;59503;53.486;10.196;2024-02-15T06:32:51;101622.19;;;10.96;100.00
71666;BME280;59503;53.486;10.196;2024-02-15T06:35:36;101638.16;;;10.97;100.00
71666;BME280;59503;53.486;10.196;2024-02-15T06:38:20;101627.50;;;11.04;100.00
71666;BME280;59503;53.486;10.196;2024-02-15T06:41:04;101643.16;;;10.95;100.00
71666;BME280;59503;53.486;10.196;2024-02-15T06:43:29;101628.44;;;10.96;100.00
71666;BME280;59503;53.486;10.196;2024-02-15T06:45:55;101641.22;;;10.96;100.00
71666;BME280;59503;53.486;10.196;2024-02-15T06:48:20;101644.28;;;10.94;100.00
71666;BME280;59503;53.486;10.196;2024-02-15T06:50:49;101639.19;;;10.93;100.00
71666;BME280;59503;53.486;10.196;2024-02-15T06:53:14;101640.53;;;10.99;100.00
71666;BME280;59503;53.486;10.196;2024-02-15T06:55:40;101633.41;;;11.06;100.00
71666;BME280;59503;53.486;10.196;2024-02-15T06:58:05;101630.22;;;11.04;100.00
71666;BME280;59503;53.486;10.196;2024-02-15T07:00:31;101622.16;;;11.08;100.00
71666;BME280;59503;53.486;10.196;2024-02-15T07:02:57;101622.94;;;11.20;100.00
71666;BME280;59503;53.486;10.196;2024-02-15T07:05:22;101628.72;;;11.19;100.00
71666;BME280;59503;53.486;10.196;2024-02-15T07:07:49;101634.84;;;11.16;100.00
71666;BME280;59503;53.486;10.196;2024-02-15T07:10:15;101629.50;;;11.19;100.00
71666;BME280;59503;53.486;10.196;2024-02-15T07:12:42;101636.22;;;11.10;100.00
71666;BME280;59503;53.486;10.196;2024-02-15T07:15:09;101632.47;;;11.14;100.00
71666;BME280;59503;53.486;10.196;2024-02-15T07:17:35;101616.03;;;11.11;100.00
71666;BME280;59503;53.486;10.196;2024-02-15T07:20:02;101634.28;;;11.10;100.00
71666;BME280;59503;53.486;10.196;2024-02-15T07:22:30;101638.50;;;11.08;100.00
71666;BME280;59503;53.486;10.196;2024-02-15T07:24:59;101629.75;;;11.02;100.00
71666;BME280;59503;53.486;10.196;2024-02-15T07:27:25;101640.41;;;11.07;100.00
71666;BME280;59503;53.486;10.196;2024-02-15T07:29:52;101630.47;;;10.99;100.00
71666;BME280;59503;53.486;10.196;2024-02-15T07:32:18;101641.66;;;11.10;100.00
71666;BME280;59503;53.486;10.196;2024-02-15T07:34:44;101645.84;;;11.07;100.00
71666;BME280;59503;53.486;10.196;2024-02-15T07:37:10;101651.06;;;11.12;100.00
71666;BME280;59503;53.486;10.196;2024-02-15T07:39:38;101650.19;;;11.08;100.00
71666;BME280;59503;53.486;10.196;2024-02-15T07:42:03;101658.34;;;11.08;100.00
71666;BME280;59503;53.486;10.196;2024-02-15T07:44:30;101662.28;;;11.11;100.00
71666;BME280;59503;53.486;10.196;2024-02-15T07:46:58;101654.25;;;11.14;100.00
71666;BME280;59503;53.486;10.196;2024-02-15T07:49:26;101646.06;;;11.14;100.00
71666;BME280;59503;53.486;10.196;2024-02-15T07:51:51;101648.44;;;11.16;100.00
71666;BME280;59503;53.486;10.196;2024-02-15T07:54:20;101656.72;;;11.19;100.00
71666;BME280;59503;53.486;10.196;2024-02-15T07:56:49;101654.47;;;11.21;100.00
71666;BME280;59503;53.486;10.196;2024-02-15T07:59:15;101661.47;;;11.22;100.00
71666;BME280;59503;53.486;10.196;2024-02-15T08:01:47;101651.03;;;11.24;100.00
71666;BME280;59503;53.486;10.196;2024-02-15T08:04:16;101647.19;;;11.25;100.00
71666;BME280;59503;53.486;10.196;2024-02-15T08:06:42;101638.69;;;11.27;100.00
71666;BME280;59503;53.486;10.196;2024-02-15T08:09:09;101637.88;;;11.26;100.00
71666;BME280;59503;53.486;10.196;2024-02-15T08:11:41;101644.25;;;11.31;100.00
71666;BME280;59503;53.486;10.196;2024-02-15T08:14:06;101654.88;;;11.36;100.00
71666;BME280;59503;53.486;10.196;2024-02-15T08:16:36;101657.59;;;11.36;100.00
71666;BME280;59503;53.486;10.196;2024-02-15T08:19:03;101662.59;;;11.34;100.00
71666;BME280;59503;53.486;10.196;2024-02-15T08:21:32;101669.28;;;11.36;100.00
71666;BME280;59503;53.486;10.196;2024-02-15T08:24:03;101670.78;;;11.34;100.00
71666;BME280;59503;53.486;10.196;2024-02-15T08:26:32;101666.78;;;11.31;100.00
71666;BME280;59503;53.486;10.196;2024-02-15T08:28:58;101656.81;;;11.35;100.00
71666;BME280;59503;53.486;10.196;2024-02-15T08:31:24;101659.19;;;11.37;100.00
71666;BME280;59503;53.486;10.196;2024-02-15T08:33:49;101661.56;;;11.38;100.00
71666;BME280;59503;53.486;10.196;2024-02-15T08:36:15;101667.13;;;11.42;100.00
71666;BME280;59503;53.486;10.196;2024-02-15T08:38:40;101657.78;;;11.43;100.00
71666;BME280;59503;53.486;10.196;2024-02-15T08:41:09;101656.53;;;11.52;100.00
71666;BME280;59503;53.486;10.196;2024-02-15T08:43:36;101657.31;;;11.53;100.00
71666;BME280;59503;53.486;10.196;2024-02-15T08:46:05;101655.72;;;11.52;100.00
71666;BME280;59503;53.486;10.196;2024-02-15T08:48:31;101655.38;;;11.53;100.00
71666;BME280;59503;53.486;10.196;2024-02-15T08:50:57;101655.59;;;11.60;100.00
71666;BME280;59503;53.486;10.196;2024-02-15T08:53:23;101650.50;;;11.71;100.00
71666;BME280;59503;53.486;10.196;2024-02-15T08:55:50;101657.72;;;11.79;100.00
71666;BME280;59503;53.486;10.196;2024-02-15T08:58:18;101651.34;;;11.75;100.00
71666;BME280;59503;53.486;10.196;2024-02-15T09:00:46;101645.47;;;11.73;100.00
71666;BME280;59503;53.486;10.196;2024-02-15T09:03:12;101641.63;;;11.74;100.00
71666;BME280;59503;53.486;10.196;2024-02-15T09:05:40;101647.25;;;11.81;100.00
71666;BME280;59503;53.486;10.196;2024-02-15T09:08:07;101649.28;;;11.84;100.00
71666;BME280;59503;53.486;10.196;2024-02-15T09:10:32;101642.34;;;11.86;100.00
71666;BME280;59503;53.486;10.196;2024-02-15T09:12:58;101651.41;;;11.90;100.00
71666;BME280;59503;53.486;10.196;2024-02-15T09:15:23;101646.31;;;11.89;100.00
71666;BME280;59503;53.486;10.196;2024-02-15T09:17:50;101648.78;;;11.94;100.00
71666;BME280;59503;53.486;10.196;2024-02-15T09:20:16;101651.25;;;11.99;100.00
71666;BME280;59503;53.486;10.196;2024-02-15T09:22:51;101657.25;;;12.04;100.00
71666;BME280;59503;53.486;10.196;2024-02-15T09:25:18;101652.47;;;12.01;100.00
71666;BME280;59503;53.486;10.196;2024-02-15T09:27:44;101655.03;;;12.10;100.00
71666;BME280;59503;53.486;10.196;2024-02-15T09:30:11;101656.63;;;12.11;100.00
71666;BME280;59503;53.486;10.196;2024-02-15T09:32:38;101655.13;;;12.13;100.00
71666;BME280;59503;53.486;10.196;2024-02-15T09:35:05;101658.06;;;12.20;100.00
71666;BME280;59503;53.486;10.196;2024-02-15T09:37:38;101661.31;;;12.26;100.00
71666;BME280;59503;53.486;10.196;2024-02-15T09:40:08;101663.59;;;12.24;100.00
71666;BME280;59503;53.486;10.196;2024-02-15T09:42:35;101663.16;;;12.22;100.00
71666;BME280;59503;53.486;10.196;2024-02-15T09:45:05;101660.69;;;12.17;100.00
71666;BME280;59503;53.486;10.196;2024-02-15T09:47:35;101661.75;;;12.12;100.00
71666;BME280;59503;53.486;10.196;2024-02-15T09:50:02;101656.28;;;12.12;100.00
71666;BME280;59503;53.486;10.196;2024-02-15T09:52:29;101658.91;;;12.09;100.00
71666;BME280;59503;53.486;10.196;2024-02-15T09:54:58;101665.78;;;12.03;100.00
71666;BME280;59503;53.486;10.196;2024-02-15T09:57:26;101660.06;;;12.08;100.00
71666;BME280;59503;53.486;10.196;2024-02-15T09:59:53;101664.63;;;12.04;100.00
71666;BME280;59503;53.486;10.196;2024-02-15T10:02:19;101669.38;;;12.07;100.00
71666;BME280;59503;53.486;10.196;2024-02-15T10:04:45;101671.38;;;12.10;100.00
71666;BME280;59503;53.486;10.196;2024-02-15T10:07:12;101668.56;;;12.06;100.00
71666;BME280;59503;53.486;10.196;2024-02-15T10:09:38;101661.44;;;12.02;100.00
71666;BME280;59503;53.486;10.196;2024-02-15T10:12:08;101672.25;;;11.98;100.00
71666;BME280;59503;53.486;10.196;2024-02-15T10:14:35;101664.88;;;11.99;100.00
71666;BME280;59503;53.486;10.196;2024-02-15T10:17:07;101670.22;;;11.95;100.00
71666;BME280;59503;53.486;10.196;2024-02-15T10:19:38;101671.44;;;11.98;100.00
71666;BME280;59503;53.486;10.196;2024-02-15T10:22:07;101669.16;;;12.00;100.00
71666;BME280;59503;53.486;10.196;2024-02-15T10:24:33;101673.50;;;12.01;100.00
71666;BME280;59503;53.486;10.196;2024-02-15T10:27:03;101667.16;;;11.97;100.00
71666;BME280;59503;53.486;10.196;2024-02-15T10:29:30;101671.91;;;12.00;100.00
71666;BME280;59503;53.486;10.196;2024-02-15T10:31:57;101678.25;;;12.04;100.00
71666;BME280;59503;53.486;10.196;2024-02-15T10:34:26;101667.34;;;12.04;100.00
71666;BME280;59503;53.486;10.196;2024-02-15T10:37:11;101675.28;;;12.09;100.00
71666;BME280;59503;53.486;10.196;2024-02-15T10:39:37;101665.94;;;12.10;100.00
71666;BME280;59503;53.486;10.196;2024-02-15T10:42:06;101662.53;;;12.13;100.00
71666;BME280;59503;53.486;10.196;2024-02-15T10:44:32;101660.78;;;12.20;100.00
71666;BME280;59503;53.486;10.196;2024-02-15T10:47:02;101664.81;;;12.26;100.00
71666;BME280;59503;53.486;10.196;2024-02-15T10:49:32;101673.09;;;12.30;100.00
71666;BME280;59503;53.486;10.196;2024-02-15T10:51:59;101668.19;;;12.35;100.00
71666;BME280;59503;53.486;10.196;2024-02-15T10:54:52;101658.94;;;12.40;100.00
71666;BME280;59503;53.486;10.196;2024-02-15T10:57:21;101663.00;;;12.46;100.00
71666;BME280;59503;53.486;10.196;2024-02-15T10:59:56;101655.28;;;12.48;100.00
71666;BME280;59503;53.486;10.196;2024-02-15T11:02:43;101653.94;;;12.42;100.00
71666;BME280;59503;53.486;10.196;2024-02-15T11:05:14;101653.31;;;12.48;100.00
71666;BME280;59503;53.486;10.196;2024-02-15T11:07:46;101652.28;;;12.53;100.00
71666;BME280;59503;53.486;10.196;2024-02-15T11:10:11;101646.38;;;12.51;100.00
71666;BME280;59503;53.486;10.196;2024-02-15T11:12:42;101640.56;;;12.52;100.00
71666;BME280;59503;53.486;10.196;2024-02-15T11:15:09;101642.22;;;12.57;100.00
71666;BME280;59503;53.486;10.196;2024-02-15T11:17:44;101637.13;;;12.56;100.00
71666;BME280;59503;53.486;10.196;2024-02-15T11:22:58;101640.66;;;12.56;100.00
71666;BME280;59503;53.486;10.196;2024-02-15T11:25:34;101642.94;;;12.54;100.00
71666;BME280;59503;53.486;10.196;2024-02-15T11:30:48;101632.13;;;12.58;100.00
71666;BME280;59503;53.486;10.196;2024-02-15T11:33:33;101629.03;;;12.59;100.00
71666;BME280;59503;53.486;10.196;2024-02-15T11:36:09;101622.00;;;12.58;100.00
71666;BME280;59503;53.486;10.196;2024-02-15T11:38:35;101617.75;;;12.61;100.00
71666;BME280;59503;53.486;10.196;2024-02-15T11:41:03;101627.56;;;12.62;100.00
71666;BME280;59503;53.486;10.196;2024-02-15T11:46:24;101619.81;;;12.48;100.00
71666;BME280;59503;53.486;10.196;2024-02-15T11:48:51;101612.31;;;12.45;100.00
71666;BME280;59503;53.486;10.196;2024-02-15T11:51:35;101604.41;;;12.40;100.00
71666;BME280;59503;53.486;10.196;2024-02-15T11:54:09;101616.47;;;12.39;100.00
71666;BME280;59503;53.486;10.196;2024-02-15T11:59:13;101614.97;;;12.26;100.00
71666;BME280;59503;53.486;10.196;2024-02-15T12:01:55;101603.63;;;12.24;100.00
71666;BME280;59503;53.486;10.196;2024-02-15T12:04:39;101598.63;;;12.26;100.00
71666;BME280;59503;53.486;10.196;2024-02-15T12:07:23;101595.91;;;12.26;100.00
71666;BME280;59503;53.486;10.196;2024-02-15T12:10:15;101590.63;;;12.17;100.00
71666;BME280;59503;53.486;10.196;2024-02-15T12:12:59;101592.19;;;12.18;100.00
71666;BME280;59503;53.486;10.196;2024-02-15T12:15:59;101586.66;;;12.15;100.00
71666;BME280;59503;53.486;10.196;2024-02-15T12:18:43;101594.13;;;12.18;100.00
71666;BME280;59503;53.486;10.196;2024-02-15T12:21:13;101585.59;;;12.19;100.00
71666;BME280;59503;53.486;10.196;2024-02-15T12:23:39;101587.09;;;12.17;100.00
71666;BME280;59503;53.486;10.196;2024-02-15T12:26:06;101583.56;;;12.16;100.00
71666;BME280;59503;53.486;10.196;2024-02-15T12:28:33;101587.53;;;12.19;100.00
71666;BME280;59503;53.486;10.196;2024-02-15T12:31:01;101574.34;;;12.21;100.00
71666;BME280;59503;53.486;10.196;2024-02-15T12:33:26;101579.81;;;12.21;100.00
71666;BME280;59503;53.486;10.196;2024-02-15T12:36:04;101572.75;;;12.20;100.00
71666;BME280;59503;53.486;10.196;2024-02-15T12:38:34;101578.91;;;12.17;100.00
71666;BME280;59503;53.486;10.196;2024-02-15T12:41:03;101564.84;;;12.15;100.00
71666;BME280;59503;53.486;10.196;2024-02-15T12:43:29;101566.09;;;12.17;100.00
71666;BME280;59503;53.486;10.196;2024-02-15T12:45:55;101567.22;;;12.16;100.00